Latest Aviation Weather Report (METAR)

METAR VMMC 092130Z 36020KT 9999 -RA FEW010 SCT025 13/11 Q1020 NOSIG=

Decoded METAR in plain language
Contents of Report Code Information
Report Type METAR Aviation Routine Weather Report
Location VMMC Macao, China
Time of the Observation 092130Z 09/12/2018 21:30:00 UTC
Surface Wind Direction and Speed 36020KT mean direction 360 degrees, speed 20 knots
Visibility 9999 10 kilometres or more
Present Weather -RA light rain
Cloud FEW010 SCT025 amount 1-2 oktas; base 1000 feet
amount 3-4 oktas; base 2500 feet
Air Temperature and Dew-Point Temperature 13/11 air temperature 13°C
dew point temperature 11°C
Pressure (QNH) Q1020 1020 hPa
Trend Forecasts During Next Two Hours NOSIG no significant changes

OTHER INTERNATIONAL AIRPORTS:
Weather Forecast (TAF)   Weather Report (METAR)